CST,Max TemperatureF,Mean TemperatureF,Min TemperatureF,Max Dew PointF,MeanDew PointF,Min DewpointF,Max Humidity, Mean Humidity, Min Humidity, Max Sea Level PressureIn, Mean Sea Level PressureIn, Min Sea Level PressureIn, Max VisibilityMiles, Mean VisibilityMiles, Min VisibilityMiles, Max Wind SpeedMPH, Mean Wind SpeedMPH, Max Gust SpeedMPH,PrecipitationIn, CloudCover, Events, WindDirDegrees
2013-2-1,10,2,-5,9,-6,-13,100,71,60,30.28,30.20,30.06,10,9,2,20,14,23,0.00,2,Snow,236
2013-2-2,17,12,8,18,7,1,100,82,62,30.06,30.02,29.96,10,9,3,15,7,18,0.00,6,Snow,303
2013-2-3,19,14,8,19,12,9,100,82,63,30.00,29.96,29.89,10,7,2,22,9,25,0.00,7,Snow,247
2013-2-4,21,14,8,19,11,3,100,81,62,29.95,29.90,29.84,10,9,1,18,7,18,0.04,5,Snow,42
2013-2-5,30,18,6,28,18,0,100,84,57,30.06,29.85,29.75,10,8,0,18,10,21,0.00,7,Snow,249
2013-2-6,35,24,14,34,22,14,100,86,64,30.16,30.09,30.01,10,10,7,22,7,28,0.00,3,,142
2013-2-7,33,28,24,34,32,25,100,99,93,30.03,29.95,29.87,10,3,0,23,8,28,0.17,8,Rain-Snow,70
2013-2-8,26,20,14,25,20,14,100,89,64,30.34,30.25,30.05,10,10,3,23,13,33,0.00,4,,28
2013-2-9,30,24,17,30,25,18,100,98,93,30.34,30.20,30.02,10,7,0,22,11,28,0.00,7,Fog,160
2013-2-10,42,33,24,43,35,25,100,99,81,30.01,29.63,29.38,10,4,0,32,13,43,0.24,7,Fog-Rain,153
2013-2-11,35,30,24,34,26,19,100,83,69,29.99,29.70,29.41,10,9,1,39,30,52,0.00,8,Snow,256
2013-2-12,32,28,23,27,20,14,100,80,64,30.06,29.98,29.83,10,10,7,18,12,25,0.00,5,,247
2013-2-13,37,29,21,34,29,21,100,90,70,29.83,29.73,29.65,10,9,1,15,9,,0.00,3,,227
2013-2-14,35,32,30,34,29,21,100,83,56,29.97,29.74,29.56,10,10,2,23,14,30,0.00,7,Rain-Snow,272
2013-2-15,30,22,14,28,9,5,93,60,43,30.17,30.13,29.98,10,10,10,17,10,23,0.00,1,Snow,301
2013-2-16,19,14,8,5,2,0,79,62,49,30.17,30.13,30.10,10,10,10,13,6,17,0.00,1,,304
2013-2-17,30,19,8,21,10,0,74,63,51,30.14,30.06,29.86,10,10,10,18,6,22,0.00,0,,154
2013-2-18,44,32,19,41,28,18,100,82,66,29.85,29.59,29.46,10,9,1,28,16,36,0.10,4,Rain-Snow,197
2013-2-19,19,12,6,18,6,0,93,77,62,30.17,29.87,29.58,10,6,0,30,22,37,0.00,6,Snow,278
2013-2-20,21,13,5,10,4,-4,72,65,58,30.34,30.29,30.19,10,10,7,17,9,22,0.00,0,,317
2013-2-21,28,20,12,27,17,7,100,87,68,30.37,30.21,29.92,10,9,0,23,10,34,0.00,6,Snow,43
2013-2-22,30,28,26,28,27,27,100,97,86,29.91,29.81,29.75,10,6,0,17,11,28,0.01,8,Snow,165
2013-2-23,28,24,19,27,19,14,100,81,64,29.92,29.87,29.84,10,10,7,18,14,21,0.00,6,Snow,245
2013-2-24,33,24,15,19,18,14,100,75,56,30.10,30.04,29.93,10,10,10,14,8,,0.00,0,,216
2013-2-25,37,29,21,28,24,19,100,82,65,30.12,30.07,29.95,10,9,4,13,5,,0.00,2,,106
2013-2-26,33,32,30,32,29,25,100,90,70,29.94,29.70,29.59,10,7,0,32,19,45,0.00,7,Snow,30
2013-2-27,33,32,30,32,31,28,100,99,93,29.76,29.65,29.59,10,5,2,20,15,28,0.00,8,Snow,351
2013-2-28,35,30,26,32,27,19,100,84,60,30.09,29.95,29.76,10,10,10,18,13,24,0.00,8,,1